Time;durP1;ratioP1;P1;durP2;ratioP2;P2;SDS_P1;SDS_P2;PMS_P1;PMS_P2;Temp;Humidity;BMP_temperature;BMP_pressure;BME280_temperature;BME280_humidity;BME280_pressure;Samples;Min_cycle;Max_cycle;Signal;HPM_P1;HPM_P2
2022/12/19 09:13:14;;;;;;;21.85;9.25;;;;;;;4.51;78.91;97337.72;2082589;28;20558;-59
2022/12/19 09:14:15;;;;;;;18.15;9.07;;;;;;;4.82;77.73;97322.72;2073319;28;20228;-59
2022/12/19 09:15:22;;;;;;;21.10;10.50;;;;;;;4.94;76.81;97326.91;2074603;28;20416;-59
2022/12/19 09:16:25;;;;;;;21.90;9.90;;;;;;;4.94;76.35;97337.28;2073530;28;20258;-59
2022/12/19 09:17:27;;;;;;;22.95;10.32;;;;;;;4.94;77.22;97334.69;2070359;28;20306;-59
2022/12/19 09:18:32;;;;;;;19.98;10.25;;;;;;;4.96;75.81;97325.16;2070200;28;20240;-59
2022/12/19 09:19:34;;;;;;;21.65;9.65;;;;;;;4.80;76.33;97331.38;2075389;28;20209;-59
2022/12/19 09:20:35;;;;;;;24.25;10.77;;;;;;;4.82;76.54;97324.47;2074117;28;20194;-59
2022/12/19 09:21:37;;;;;;;23.17;10.55;;;;;;;4.99;75.41;97311.31;2074334;28;20201;-59
2022/12/19 09:22:38;;;;;;;19.60;10.25;;;;;;;4.90;75.42;97309.69;2074100;28;20790;-59
2022/12/19 09:23:51;;;;;;;21.40;10.80;;;;;;;4.95;76.02;97326.03;2074747;28;20594;-59
2022/12/19 09:24:53;;;;;;;18.83;10.20;;;;;;;5.07;75.33;97318.13;2073215;28;20241;-61
2022/12/19 09:26:04;;;;;;;20.95;10.13;;;;;;;5.42;74.89;97338.41;2073564;28;20232;-61
2022/12/19 09:27:06;;;;;;;20.33;9.60;;;;;;;5.64;73.65;97329.47;2072988;28;20197;-61
2022/12/19 09:28:07;;;;;;;30.23;10.80;;;;;;;5.60;73.77;97332.13;2072610;28;20458;-61
2022/12/19 09:29:29;;;;;;;20.83;10.15;;;;;;;5.56;73.84;97332.19;2074137;28;20205;-61
2022/12/19 09:30:35;;;;;;;20.27;10.30;;;;;;;5.40;74.33;97328.09;2071295;28;20641;-61
2022/12/19 09:31:37;;;;;;;20.83;10.57;;;;;;;5.06;74.97;97306.03;2071688;28;20197;-61
2022/12/19 09:32:39;;;;;;;18.42;9.57;;;;;;;5.04;75.46;97328.53;2072286;28;20677;-61
2022/12/19 09:33:42;;;;;;;16.92;9.73;;;;;;;4.81;75.97;97323.63;2073491;28;20263;-61
2022/12/19 09:34:46;;;;;;;20.02;9.68;;;;;;;5.07;75.66;97331.06;2074954;28;20268;-61
2022/12/19 09:35:50;;;;;;;20.70;10.88;;;;;;;5.40;75.21;97328.09;2070156;28;20774;-61
2022/12/19 09:36:52;;;;;;;22.85;10.63;;;;;;;5.34;74.59;97317.81;2071658;28;20246;-61
2022/12/19 09:37:54;;;;;;;22.08;10.35;;;;;;;5.30;74.81;97329.09;2064772;28;20212;-61
2022/12/19 09:39:01;;;;;;;19.67;11.25;;;;;;;5.37;74.57;97330.69;2073246;28;20561;-61
2022/12/19 09:48:26;;;;;;;17.90;8.75;;;;;;;5.57;74.29;97320.06;2086134;28;20574;-58
2022/12/19 09:49:37;;;;;;;15.13;9.13;;;;;;;6.61;72.28;97321.06;2089890;28;20203;-58
2022/12/19 09:51:04;;;;;;;15.07;7.38;;;;;;;6.67;69.77;97308.81;2090509;28;20200;-58
2022/12/19 09:52:29;;;;;;;19.17;8.85;;;;;;;6.43;70.74;97325.69;2089878;28;20295;-58
2022/12/19 09:53:58;;;;;;;17.45;8.35;;;;;;;7.15;69.08;97314.84;2089487;28;20250;-58
2022/12/19 09:55:21;;;;;;;17.35;8.43;;;;;;;7.47;67.97;97305.53;2091078;28;20207;-58
2022/12/19 09:56:28;;;;;;;20.33;9.23;;;;;;;7.51;67.50;97317.56;2088866;28;20192;-57
2022/12/19 09:57:40;;;;;;;18.25;7.97;;;;;;;7.70;67.13;97314.56;2089087;28;20202;-57
2022/12/19 09:58:50;;;;;;;17.88;7.93;;;;;;;7.32;67.36;97317.94;2089343;28;20239;-57
2022/12/19 10:00:27;;;;;;;14.55;6.88;;;;;;;8.54;65.15;97316.88;2090836;28;20219;-57
2022/12/19 10:01:42;;;;;;;15.32;8.15;;;;;;;9.10;63.35;97318.00;2080098;28;20240;-59
2022/12/19 10:02:56;;;;;;;17.02;8.13;;;;;;;8.53;64.48;97307.34;2090036;28;20232;-59
2022/12/19 10:04:20;;;;;;;15.63;7.15;;;;;;;7.28;66.74;97305.91;2090490;28;20250;-59
2022/12/19 10:05:30;;;;;;;13.55;7.95;;;;;;;6.85;69.14;97311.97;2089180;28;20319;-59
2022/12/19 10:06:51;;;;;;;14.98;8.55;;;;;;;6.36;69.59;97277.38;2090068;28;20237;-59
2022/12/19 10:08:20;;;;;;;14.05;7.93;;;;;;;7.07;68.61;97302.00;2091675;28;20315;-59
2022/12/19 10:09:28;;;;;;;14.40;8.10;;;;;;;6.62;69.85;97308.06;2091706;28;20198;-59
2022/12/19 10:11:04;;;;;;;13.80;6.80;;;;;;;6.67;69.86;97310.56;2090168;28;20200;-60
2022/12/19 10:12:26;;;;;;;15.75;7.95;;;;;;;6.64;69.58;97313.22;2090800;28;20613;-59
2022/12/19 10:14:12;;;;;;;19.77;8.52;;;;;;;6.05;71.84;97311.63;2090411;28;20373;-59
2022/12/19 10:15:24;;;;;;;15.98;9.32;;;;;;;5.85;72.36;97311.91;2090801;28;20204;-59
2022/12/19 10:16:49;;;;;;;16.05;9.07;;;;;;;5.86;72.51;97311.03;2090350;28;20210;-58
2022/12/19 10:18:49;;;;;;;17.48;9.70;;;;;;;5.49;73.63;97312.41;2091379;28;20320;-58
2022/12/19 10:20:24;;;;;;;16.85;9.32;;;;;;;5.38;74.05;97309.97;2090310;28;20196;-58
2022/12/19 10:22:03;;;;;;;15.70;7.70;;;;;;;5.38;74.87;97315.16;2090442;28;20192;-58
2022/12/19 10:23:39;;;;;;;15.82;8.60;;;;;;;5.16;75.08;97308.53;2093939;28;20242;-58
2022/12/19 10:24:56;;;;;;;20.88;9.20;;;;;;;5.24;75.46;97314.47;2088829;28;20227;-58
2022/12/19 10:26:17;;;;;;;20.02;9.48;;;;;;;5.04;75.61;97294.88;2089136;28;20207;-58
2022/12/19 10:27:19;;;;;;;18.08;9.93;;;;;;;5.21;75.70;97309.34;2097601;28;20246;-57
2022/12/19 10:28:39;;;;;;;20.13;8.82;;;;;;;5.20;75.21;97303.28;2087183;28;20378;-58
2022/12/19 10:30:09;;;;;;;16.77;9.07;;;;;;;5.25;75.01;97303.22;2090104;28;20242;-58
2022/12/19 10:31:20;;;;;;;24.15;10.60;;;;;;;5.23;75.25;97294.63;2090337;28;20201;-58
2022/12/19 10:32:45;;;;;;;16.60;9.15;;;;;;;5.56;74.58;97290.72;2090375;28;20683;-58
2022/12/19 10:34:00;;;;;;;17.90;8.90;;;;;;;5.78;73.79;97292.16;2089186;28;20224;-58
2022/12/19 10:35:12;;;;;;;17.48;9.25;;;;;;;5.61;73.98;97289.78;2090122;28;20193;-58
2022/12/19 10:36:14;;;;;;;17.75;9.00;;;;;;;5.57;73.79;97278.63;2089864;28;20315;-58
2022/12/19 10:37:25;;;;;;;20.30;10.40;;;;;;;5.53;74.02;97287.31;2090786;28;20188;-58
2022/12/19 10:38:56;;;;;;;19.25;8.82;;;;;;;5.83;73.36;97287.75;2097591;28;20227;-58
2022/12/19 10:40:25;;;;;;;18.25;8.48;;;;;;;6.02;72.86;97291.78;2093678;28;20241;-58
2022/12/19 10:41:31;;;;;;;15.68;8.68;;;;;;;6.30;71.83;97286.13;2090236;28;20196;-57
2022/12/19 10:42:51;;;;;;;16.67;9.27;;;;;;;5.91;72.65;97301.44;2087901;28;20568;-57
2022/12/19 10:43:56;;;;;;;15.85;7.57;;;;;;;6.11;72.57;97295.97;2089020;28;20223;-58
2022/12/19 10:45:05;;;;;;;21.77;10.32;;;;;;;6.08;72.38;97292.56;2088299;28;20732;-56
2022/12/19 10:46:23;;;;;;;25.33;9.07;;;;;;;6.23;72.64;97294.91;2089677;28;20222;-57
2022/12/19 10:47:25;;;;;;;15.32;8.25;;;;;;;6.44;71.96;97280.69;2089645;28;20188;-57
2022/12/19 10:48:31;;;;;;;15.60;8.98;;;;;;;6.25;71.61;97289.69;2090046;28;20242;-56
2022/12/19 10:49:32;;;;;;;15.05;8.23;;;;;;;6.52;71.42;97291.78;2089008;28;20207;-57
2022/12/19 10:50:35;;;;;;;21.35;10.07;;;;;;;6.72;70.95;97287.09;2088128;28;20204;-57
2022/12/19 10:51:36;;;;;;;17.92;8.38;;;;;;;6.37;71.29;97273.91;2087176;28;20836;-56
2022/12/19 10:52:51;;;;;;;19.23;10.32;;;;;;;6.21;71.58;97269.00;2087343;28;20197;-57
2022/12/19 10:53:55;;;;;;;16.08;9.00;;;;;;;6.15;72.00;97278.63;2088089;28;20370;-57
2022/12/19 10:54:57;;;;;;;21.13;9.45;;;;;;;6.18;72.29;97270.78;2090064;28;20850;-57
2022/12/19 10:56:01;;;;;;;15.57;8.90;;;;;;;6.07;71.86;97264.91;2089892;28;20683;-57
2022/12/19 10:57:23;;;;;;;16.25;9.35;;;;;;;6.53;71.70;97258.94;2089557;28;20207;-57
2022/12/19 10:58:33;;;;;;;21.25;8.50;;;;;;;7.66;69.27;97252.22;2092898;28;20208;-59
2022/12/19 10:59:35;;;;;;;16.92;8.38;;;;;;;8.47;65.89;97250.28;2088648;28;20439;-57
2022/12/19 11:00:44;;;;;;;14.98;7.82;;;;;;;8.82;64.60;97248.44;2080786;28;20197;-58
2022/12/19 11:01:47;;;;;;;17.17;7.55;;;;;;;8.87;63.68;97253.53;2081298;28;20213;-56
2022/12/19 11:03:13;;;;;;;18.58;8.80;;;;;;;9.52;62.38;97254.25;2081345;28;20673;-57
2022/12/19 11:04:32;;;;;;;18.65;8.75;;;;;;;9.68;61.88;97258.09;2081878;28;20196;-56
2022/12/19 11:05:48;;;;;;;17.27;9.68;;;;;;;9.58;61.17;97254.06;2083870;28;20201;-57
2022/12/19 11:07:01;;;;;;;17.85;8.45;;;;;;;9.89;60.94;97261.78;2084017;28;20294;-58
2022/12/19 11:08:31;;;;;;;14.50;8.65;;;;;;;10.09;59.70;97255.03;2087304;28;20663;-57
2022/12/19 11:09:42;;;;;;;20.10;9.10;;;;;;;10.35;59.06;97258.53;2085121;28;20259;-57
2022/12/19 11:11:03;;;;;;;20.95;9.43;;;;;;;9.44;60.29;97265.75;2082272;28;20235;-57
2022/12/19 11:12:27;;;;;;;22.42;9.95;;;;;;;10.19;59.18;97264.25;2082680;28;20201;-57
2022/12/19 11:13:48;;;;;;;18.05;9.18;;;;;;;10.94;57.59;97263.47;2083278;28;20221;-57
2022/12/19 11:15:12;;;;;;;18.27;9.60;;;;;;;11.25;56.62;97256.25;2082174;28;20212;-57
2022/12/19 11:16:36;;;;;;;15.95;8.30;;;;;;;12.47;53.87;97246.19;2085992;28;20207;-57
2022/12/19 11:18:08;;;;;;;15.10;7.63;;;;;;;12.75;52.99;97252.84;2083958;28;20205;-57
2022/12/19 11:19:35;;;;;;;15.30;8.50;;;;;;;12.29;53.56;97249.56;2083614;28;20200;-57
2022/12/19 11:21:11;;;;;;;18.98;8.52;;;;;;;11.55;55.02;97251.63;2084164;28;20259;-57
2022/12/19 11:22:35;;;;;;;16.35;8.45;;;;;;;10.55;56.98;97245.69;2084535;28;20872;-57
2022/12/19 11:23:59;;;;;;;14.15;8.23;;;;;;;10.22;57.50;97222.41;2083843;28;20650;-57
2022/12/19 11:25:38;;;;;;;14.70;8.93;;;;;;;9.86;59.69;97247.97;2084755;28;20695;-57
2022/12/19 11:27:01;;;;;;;22.10;10.40;;;;;;;9.26;61.11;97248.91;2083580;28;20249;-57
2022/12/19 11:28:31;;;;;;;15.88;9.00;;;;;;;9.39;60.73;97233.75;2082427;28;20223;-58
2022/12/19 11:29:52;;;;;;;16.05;8.70;;;;;;;9.71;60.27;97244.09;2084394;28;20205;-58
2022/12/19 11:31:22;;;;;;;18.52;9.00;;;;;;;10.47;59.06;97242.47;2084318;28;20204;-58
2022/12/19 11:32:46;;;;;;;18.45;9.48;;;;;;;10.90;56.66;97229.66;2084398;28;20205;-58
2022/12/19 11:33:54;;;;;;;13.65;7.55;;;;;;;9.72;59.08;97238.81;2083452;28;20255;-58
2022/12/19 11:35:01;;;;;;;15.68;8.45;;;;;;;9.76;59.68;97231.75;2087241;28;20227;-57
2022/12/19 11:36:05;;;;;;;27.35;9.00;;;;;;;11.36;57.03;97235.75;2087515;28;20235;-58
2022/12/19 11:37:18;;;;;;;18.35;9.30;;;;;;;12.30;54.04;97230.31;2085361;28;20279;-58
2022/12/19 11:38:51;;;;;;;13.27;7.80;;;;;;;11.02;56.18;97223.13;2083848;28;20231;-58
2022/12/19 11:40:23;;;;;;;16.50;8.23;;;;;;;10.10;58.63;97239.31;2083877;28;20204;-58
2022/12/19 11:41:39;;;;;;;15.02;8.43;;;;;;;10.44;58.17;97232.16;2080262;28;20193;-58
2022/12/19 11:43:10;;;;;;;13.90;7.63;;;;;;;9.30;60.36;97231.44;2082793;28;20678;-57
2022/12/19 11:44:47;;;;;;;14.50;7.20;;;;;;;8.14;63.64;97224.22;2083198;28;20300;-58
2022/12/19 11:46:01;;;;;;;13.68;7.70;;;;;;;8.76;62.97;97222.56;2084137;28;20197;-57
2022/12/19 11:47:40;;;;;;;14.48;7.57;;;;;;;10.78;58.06;97213.50;2084415;28;20246;-58
2022/12/19 11:48:49;;;;;;;12.77;8.07;;;;;;;11.38;55.68;97209.56;2083013;28;20676;-58
2022/12/19 11:50:01;;;;;;;14.38;7.60;;;;;;;12.35;54.35;97204.78;2084704;28;20224;-57
2022/12/19 11:51:05;;;;;;;12.95;8.00;;;;;;;11.50;54.12;97201.22;2085067;28;20709;-58
2022/12/19 11:52:44;;;;;;;13.60;7.05;;;;;;;11.51;55.23;97202.94;2084184;28;20585;-58
2022/12/19 11:54:29;;;;;;;13.48;7.55;;;;;;;10.29;57.69;97202.16;2085350;28;20773;-58
2022/12/19 11:55:53;;;;;;;31.13;8.43;;;;;;;10.74;57.87;97201.47;2086909;28;20430;-58
2022/12/19 11:56:55;;;;;;;21.60;8.48;;;;;;;10.54;58.51;97217.00;2085713;28;20201;-57
2022/12/19 11:57:57;;;;;;;22.17;8.65;;;;;;;10.35;58.47;97214.16;2079425;28;20200;-57
2022/12/19 11:59:06;;;;;;;17.10;8.02;;;;;;;10.43;58.53;97225.22;2084459;28;20224;-57
2022/12/19 12:00:13;;;;;;;24.80;9.55;;;;;;;10.16;59.18;97219.16;2083742;28;20648;-57
2022/12/19 12:01:31;;;;;;;18.67;8.32;;;;;;;10.75;58.01;97220.59;2083615;28;20360;-57
2022/12/19 12:03:00;;;;;;;20.00;9.50;;;;;;;11.03;57.13;97209.13;2083601;28;20557;-57
2022/12/19 12:04:28;;;;;;;23.23;7.85;;;;;;;11.47;56.08;97211.81;2085411;28;20263;-57
2022/12/19 12:05:43;;;;;;;14.00;7.40;;;;;;;10.98;57.07;97211.06;2085042;28;20248;-57
2022/12/19 12:06:49;;;;;;;14.50;7.32;;;;;;;10.40;58.42;97188.78;2083659;28;20202;-57
2022/12/19 12:08:10;;;;;;;18.15;7.97;;;;;;;10.10;58.99;97208.00;2083398;28;20805;-57
2022/12/19 12:10:01;;;;;;;15.27;8.25;;;;;;;10.02;59.59;97217.00;2084170;28;20292;-57
2022/12/19 12:11:33;;;;;;;22.77;8.35;;;;;;;9.57;59.97;97206.28;2084887;28;20657;-57
2022/12/19 12:13:25;;;;;;;24.38;9.30;;;;;;;9.29;61.95;97211.47;2081112;28;20617;-57
2022/12/19 12:15:05;;;;;;;15.48;7.10;;;;;;;8.96;62.91;97212.47;2083884;28;20208;-58
2022/12/19 12:16:57;;;;;;;19.08;9.30;;;;;;;8.85;63.52;97200.63;2083202;28;20212;-57
2022/12/19 12:18:27;;;;;;;15.35;8.15;;;;;;;8.25;65.17;97201.38;2082389;28;20229;-57
2022/12/19 12:20:01;;;;;;;19.83;8.88;;;;;;;8.20;65.60;97202.38;2082155;28;20244;-57
2022/12/19 12:21:24;;;;;;;16.30;8.48;;;;;;;8.37;65.76;97202.78;2084780;28;20200;-58
2022/12/19 12:22:57;;;;;;;20.25;10.98;;;;;;;7.56;67.33;97200.50;2083861;28;20242;-57
2022/12/19 12:24:41;;;;;;;17.77;10.15;;;;;;;7.28;68.78;97196.78;2083662;28;20676;-57
2022/12/19 12:26:02;;;;;;;18.30;10.45;;;;;;;7.02;69.54;97192.16;2083567;28;20827;-58
2022/12/19 12:28:09;;;;;;;16.80;9.18;;;;;;;6.78;70.05;97191.81;2083969;28;20200;-57
2022/12/19 12:29:53;;;;;;;17.80;8.88;;;;;;;7.03;69.80;97181.75;2084256;28;20213;-57
2022/12/19 12:31:29;;;;;;;23.42;9.95;;;;;;;7.12;69.62;97180.72;2083908;28;20204;-58
2022/12/19 12:33:03;;;;;;;17.52;10.45;;;;;;;6.93;70.01;97179.38;2083505;28;20204;-58
2022/12/19 12:34:49;;;;;;;19.58;9.10;;;;;;;7.28;69.34;97176.00;2082476;28;20753;-58
2022/12/19 12:36:22;;;;;;;17.77;10.45;;;;;;;7.27;68.65;97168.25;2082892;28;20205;-58
2022/12/19 12:37:57;;;;;;;18.20;9.15;;;;;;;7.04;69.51;97172.22;2081364;28;20316;-58
2022/12/19 12:39:28;;;;;;;20.08;10.23;;;;;;;7.16;70.01;97173.69;2083270;28;20217;-58
2022/12/19 12:41:12;;;;;;;19.88;9.38;;;;;;;7.04;70.38;97187.81;2083586;28;20195;-58
2022/12/19 12:42:35;;;;;;;24.15;10.18;;;;;;;7.02;69.68;97172.25;2074336;28;20212;-58
2022/12/19 12:43:49;;;;;;;19.15;9.60;;;;;;;6.88;70.48;97182.06;2082287;28;20251;-58
2022/12/19 12:44:55;;;;;;;23.80;10.30;;;;;;;6.56;71.15;97159.41;2082881;28;20274;-58
2022/12/19 12:45:57;;;;;;;24.00;11.48;;;;;;;6.52;71.67;97164.63;2084480;28;20188;-59
2022/12/19 12:47:21;;;;;;;20.83;10.70;;;;;;;6.63;71.46;97172.22;2084031;28;20200;-58
2022/12/19 12:48:33;;;;;;;29.42;10.63;;;;;;;6.42;72.32;97173.50;2082527;28;20307;-58
2022/12/19 12:49:44;;;;;;;41.42;11.20;;;;;;;6.33;72.98;97181.47;2084050;28;20208;-58
2022/12/19 12:50:48;;;;;;;20.23;11.07;;;;;;;6.24;72.80;97153.97;2083386;28;20196;-58
2022/12/19 12:51:58;;;;;;;21.70;10.73;;;;;;;6.33;73.44;97174.53;2081493;28;20200;-58
2022/12/19 12:53:06;;;;;;;24.15;11.27;;;;;;;6.59;72.41;97160.19;2082323;28;20201;-58
2022/12/19 12:54:13;;;;;;;21.50;10.27;;;;;;;6.33;73.15;97176.28;2083019;28;20276;-58
2022/12/19 12:55:19;;;;;;;21.23;10.55;;;;;;;6.45;72.56;97168.25;2083621;28;20696;-58
2022/12/19 12:56:21;;;;;;;19.70;10.20;;;;;;;6.60;72.36;97159.31;2084326;28;20215;-58
2022/12/19 12:57:25;;;;;;;26.67;9.98;;;;;;;6.64;72.01;97170.47;2083472;28;20232;-58
2022/12/19 12:58:54;;;;;;;18.95;10.07;;;;;;;6.88;72.10;97173.44;2081803;28;20212;-58
2022/12/19 13:00:13;;;;;;;18.92;10.35;;;;;;;6.96;71.13;97175.00;2079856;28;21062;-58
2022/12/19 13:01:23;;;;;;;18.15;9.27;;;;;;;7.10;71.04;97156.50;2081218;28;20188;-58
2022/12/19 13:02:25;;;;;;;19.88;9.93;;;;;;;7.41;70.28;97167.94;2083294;28;20430;-58
2022/12/19 13:03:28;;;;;;;37.00;19.15;;;;;;;7.57;70.04;97171.88;2079173;28;20730;-65
2022/12/19 13:04:40;;;;;;;110.35;60.90;;;;;;;7.77;69.24;97163.59;2082047;28;20203;-65
2022/12/19 13:05:53;;;;;;;101.38;50.15;;;;;;;7.87;69.31;97165.94;2082351;28;20244;-64
2022/12/19 13:07:12;;;;;;;21.23;12.18;;;;;;;7.97;68.33;97164.81;2082161;28;20196;-58
2022/12/19 13:08:42;;;;;;;24.48;9.85;;;;;;;7.67;68.58;97172.50;2080664;28;20868;-58
2022/12/19 13:09:54;;;;;;;19.67;10.57;;;;;;;7.36;69.97;97160.22;2077877;28;20229;-58
2022/12/19 13:10:58;;;;;;;26.13;10.98;;;;;;;7.45;69.37;97169.56;2079821;28;20200;-57
2022/12/19 13:13:53;;;;;;;16.38;8.63;;;;;;;7.44;69.28;97178.25;2079266;28;20724;-58
2022/12/19 13:15:33;;;;;;;16.77;9.35;;;;;;;6.98;70.99;97174.94;2083308;28;20197;-58
2022/12/19 13:16:43;;;;;;;19.90;10.43;;;;;;;6.87;71.57;97170.00;2083747;28;20228;-58
2022/12/19 13:17:47;;;;;;;23.70;10.80;;;;;;;6.91;71.52;97171.63;2079552;28;20236;-58
2022/12/19 13:19:29;;;;;;;15.52;8.88;;;;;;;6.68;72.51;97169.53;2081468;28;20232;-58
2022/12/19 13:21:01;;;;;;;18.83;8.80;;;;;;;6.69;73.05;97176.41;2073440;28;20213;-58
2022/12/19 13:22:02;;;;;;;16.45;8.65;;;;;;;6.56;73.38;97165.44;2081491;28;20239;-58
2022/12/19 13:23:19;;;;;;;20.30;10.13;;;;;;;6.47;73.84;97168.22;2083310;28;20212;-58
2022/12/19 13:24:21;;;;;;;15.05;8.15;;;;;;;6.32;73.48;97154.69;2081586;28;20226;-58
2022/12/19 13:25:25;;;;;;;15.20;7.60;;;;;;;6.34;74.01;97176.25;2082968;28;20631;-58
2022/12/19 13:26:46;;;;;;;12.95;6.85;;;;;;;6.51;73.77;97181.13;2083069;28;20194;-58
2022/12/19 13:27:48;;;;;;;16.08;7.53;;;;;;;6.51;73.56;97172.47;2083013;28;20216;-60
2022/12/19 13:28:50;;;;;;;22.50;8.23;;;;;;;6.44;73.78;97163.94;2084952;28;20225;-62
2022/12/19 13:29:52;;;;;;;13.48;7.53;;;;;;;6.32;74.48;97174.56;2082703;28;20248;-60
2022/12/19 13:31:03;;;;;;;12.10;7.43;;;;;;;6.37;73.68;97173.59;2086902;28;20251;-60
2022/12/19 13:32:23;;;;;;;18.40;8.40;;;;;;;6.03;74.79;97169.03;2085658;28;20243;-60
2022/12/19 13:33:52;;;;;;;17.23;9.07;;;;;;;6.05;75.24;97169.00;2083317;28;20217;-60
2022/12/19 13:34:59;;;;;;;14.48;8.18;;;;;;;5.79;76.05;97164.25;2083532;28;20192;-59
2022/12/19 13:36:46;;;;;;;19.42;8.23;;;;;;;5.79;76.51;97166.84;2082465;28;20262;-59
2022/12/19 13:38:22;;;;;;;18.08;8.13;;;;;;;5.73;77.11;97162.63;2083291;28;20197;-60
2022/12/19 13:39:49;;;;;;;13.35;7.18;;;;;;;5.81;76.66;97172.88;2082379;28;20641;-60
2022/12/19 13:44:20;;;;;;;16.10;7.68;;;;;;;5.79;77.27;97164.25;2083307;28;20688;-60
2022/12/19 13:45:29;;;;;;;17.63;7.90;;;;;;;5.79;77.05;97162.53;2082006;28;20192;-59
2022/12/19 13:46:41;;;;;;;15.00;7.50;;;;;;;5.77;77.12;97163.44;2082803;28;20973;-60
2022/12/19 13:47:44;;;;;;;15.02;8.63;;;;;;;5.77;77.22;97153.91;2083389;28;20189;-60
2022/12/19 13:48:55;;;;;;;13.18;6.78;;;;;;;5.82;77.24;97165.06;2082868;28;20248;-60
2022/12/19 13:49:58;;;;;;;10.90;6.35;;;;;;;5.74;77.54;97166.94;2083290;28;20211;-60
2022/12/19 13:51:04;;;;;;;18.40;7.68;;;;;;;5.80;77.83;97172.03;2079578;28;20193;-60
2022/12/19 13:52:10;;;;;;;15.57;8.27;;;;;;;5.79;77.81;97170.31;2082343;28;20818;-60
2022/12/19 13:53:18;;;;;;;14.23;6.85;;;;;;;5.76;77.73;97159.13;2083486;28;20197;-60
2022/12/19 13:54:23;;;;;;;11.23;6.57;;;;;;;5.79;77.96;97162.53;2083220;28;20204;-60
2022/12/19 13:55:27;;;;;;;14.10;6.90;;;;;;;5.92;77.52;97183.91;2083283;28;20201;-61
2022/12/19 13:56:29;;;;;;;17.92;8.35;;;;;;;5.94;77.08;97171.78;2083367;28;20196;-60
2022/12/19 13:57:31;;;;;;;16.77;6.90;;;;;;;5.98;76.99;97177.75;2082681;28;20197;-60
2022/12/19 13:58:42;;;;;;;13.73;7.18;;;;;;;5.89;77.65;97171.84;2082569;28;20702;-60
2022/12/19 13:59:44;;;;;;;17.73;9.05;;;;;;;5.96;76.84;97182.13;2081028;28;20225;-60
2022/12/19 14:01:13;;;;;;;16.27;7.90;;;;;;;5.89;77.58;97170.97;2083642;28;20850;-60
2022/12/19 14:02:38;;;;;;;16.88;8.43;;;;;;;5.86;77.36;97174.47;2083392;28;20204;-60
2022/12/19 14:03:46;;;;;;;18.92;10.10;;;;;;;5.80;77.66;97171.16;2081720;28;20371;-60
2022/12/19 14:04:47;;;;;;;18.33;8.70;;;;;;;5.75;77.71;97175.56;2083246;28;20192;-61
2022/12/19 14:05:49;;;;;;;24.25;12.45;;;;;;;5.78;77.82;97167.75;2083514;28;20698;-70
2022/12/19 14:07:38;;;;;;;25.35;12.13;;;;;;;5.79;77.50;97172.91;2084539;28;20205;-62
2022/12/19 14:08:39;;;;;;;29.02;14.07;;;;;;;5.59;77.91;97157.69;2082197;28;20235;-63
2022/12/19 14:09:49;;;;;;;25.70;11.65;;;;;;;5.59;78.21;97178.41;2083755;28;20751;-63
2022/12/19 14:11:15;;;;;;;13.43;8.40;;;;;;;5.43;78.72;97158.81;2083674;28;20796;-63
2022/12/19 14:15:46;;;;;;;18.92;9.82;;;;;;;5.50;79.07;97178.56;2082086;28;20243;-63
2022/12/19 14:16:55;;;;;;;22.02;11.00;;;;;;;5.46;79.33;97184.66;2082764;28;20200;-63
2022/12/19 14:17:59;;;;;;;22.30;8.57;;;;;;;5.47;79.31;97183.78;2081743;28;20231;-63
2022/12/19 14:19:29;;;;;;;17.67;9.40;;;;;;;5.52;78.94;97184.56;2083591;28;20664;-62
2022/12/19 14:20:31;;;;;;;15.23;8.70;;;;;;;5.56;79.21;97179.31;2083083;28;20241;-62
2022/12/19 14:21:52;;;;;;;26.20;10.93;;;;;;;5.45;79.22;97176.03;2082522;28;20383;-65
2022/12/19 14:23:12;;;;;;;26.58;10.90;;;;;;;5.47;78.95;97176.88;2081400;28;20208;-64
2022/12/19 14:24:21;;;;;;;20.23;10.63;;;;;;;5.45;79.42;97180.38;2079737;28;20193;-63
2022/12/19 14:25:32;;;;;;;25.77;9.45;;;;;;;5.36;79.59;97177.03;2080234;28;20237;-64
2022/12/19 14:27:01;;;;;;;21.17;9.85;;;;;;;5.40;79.59;97177.84;2083231;28;20201;-64
2022/12/19 14:28:51;;;;;;;18.70;8.90;;;;;;;5.58;79.58;97184.47;2084070;28;20216;-64
2022/12/19 14:29:58;;;;;;;14.30;6.07;;;;;;;5.63;78.75;97185.25;2081654;28;20247;-65
2022/12/19 14:31:20;;;;;;;10.80;6.70;;;;;;;5.67;78.92;97180.88;2082163;28;20568;-64
